Time;durP1;ratioP1;P1;durP2;ratioP2;P2;SDS_P1;SDS_P2;PMS_P1;PMS_P2;Temp;Humidity;BMP_temperature;BMP_pressure;BME280_temperature;BME280_humidity;BME280_pressure;Samples;Min_cycle;Max_cycle;Signal;HPM_P1;HPM_P2
2022/09/15 00:00:47;;;;;;;2.77;2.40;;;21.00;99.90;;;;;;914487;152;27425;-77
2022/09/15 00:03:13;;;;;;;2.30;2.20;;;21.00;99.90;;;;;;915212;152;27344;-77
2022/09/15 00:05:40;;;;;;;2.40;2.20;;;21.00;99.90;;;;;;912935;152;27466;-77
2022/09/15 00:08:07;;;;;;;3.37;2.50;;;20.90;99.90;;;;;;914707;152;27359;-77
2022/09/15 00:10:33;;;;;;;3.35;2.37;;;21.00;99.90;;;;;;915889;152;27968;-77
2022/09/15 00:13:00;;;;;;;3.22;2.30;;;21.00;99.90;;;;;;915597;152;27305;-77
2022/09/15 00:15:26;;;;;;;5.30;2.62;;;21.00;99.90;;;;;;914436;152;27729;-77
2022/09/15 00:17:53;;;;;;;2.92;2.62;;;21.00;99.90;;;;;;914437;152;27435;-77
2022/09/15 00:20:20;;;;;;;2.40;2.30;;;21.00;99.90;;;;;;912911;152;27376;-77
2022/09/15 00:22:46;;;;;;;4.00;2.50;;;21.00;99.90;;;;;;913770;152;27321;-77
2022/09/15 00:25:13;;;;;;;2.90;2.70;;;21.00;99.90;;;;;;916869;152;27286;-77
2022/09/15 00:27:39;;;;;;;3.15;2.72;;;21.00;99.90;;;;;;913999;152;27453;-77
2022/09/15 00:30:06;;;;;;;3.35;2.75;;;21.00;99.90;;;;;;915252;152;27414;-77
2022/09/15 00:32:33;;;;;;;2.42;2.33;;;21.00;99.90;;;;;;914444;152;27388;-77
2022/09/15 00:35:00;;;;;;;2.72;2.52;;;20.90;99.90;;;;;;914281;152;27356;-77
2022/09/15 00:37:26;;;;;;;3.60;2.67;;;20.90;99.90;;;;;;914241;152;27366;-77
2022/09/15 00:39:52;;;;;;;3.58;2.92;;;20.90;99.90;;;;;;913246;152;27266;-77
2022/09/15 00:42:19;;;;;;;3.62;2.50;;;20.90;99.90;;;;;;913750;152;27458;-77
2022/09/15 00:44:51;;;;;;;2.27;2.05;;;20.80;99.90;;;;;;915524;152;27472;-77
2022/09/15 00:47:18;;;;;;;3.27;1.90;;;20.80;99.90;;;;;;913021;152;27460;-77
2022/09/15 00:49:45;;;;;;;2.52;1.77;;;20.80;99.90;;;;;;913625;152;27409;-77
2022/09/15 00:52:14;;;;;;;2.10;1.90;;;20.80;99.90;;;;;;914953;152;27405;-77
2022/09/15 00:54:40;;;;;;;1.90;1.70;;;20.70;99.90;;;;;;912759;152;27320;-77
2022/09/15 00:57:07;;;;;;;2.08;1.80;;;20.70;99.90;;;;;;912944;152;27468;-77
2022/09/15 00:59:34;;;;;;;2.65;2.00;;;20.70;99.90;;;;;;914367;153;27461;-76
2022/09/15 01:02:00;;;;;;;2.62;1.70;;;20.70;99.90;;;;;;913639;150;27343;-76
2022/09/15 01:04:27;;;;;;;2.10;1.90;;;20.60;99.90;;;;;;915008;152;27300;-76
2022/09/15 01:06:53;;;;;;;2.27;1.87;;;20.60;99.90;;;;;;915817;152;27335;-76
2022/09/15 01:09:29;;;;;;;3.27;1.98;;;20.60;99.90;;;;;;913427;152;27362;-76
2022/09/15 01:11:55;;;;;;;2.12;1.87;;;20.60;99.90;;;;;;914991;152;27838;-76
2022/09/15 01:14:22;;;;;;;3.50;2.00;;;20.60;99.90;;;;;;915004;152;27328;-76
2022/09/15 01:17:07;;;;;;;3.02;1.87;;;20.60;99.90;;;;;;914194;152;27394;-76
2022/09/15 01:22:16;;;;;;;2.05;1.92;;;20.60;99.90;;;;;;973444;145;37140;-76
2022/09/15 01:25:07;;;;;;;1.62;1.52;;;20.60;99.90;;;;;;954399;148;27339;-76
2022/09/15 01:27:34;;;;;;;1.45;1.35;;;20.60;99.90;;;;;;956026;146;27307;-78
2022/09/15 01:30:04;;;;;;;1.00;1.00;;;20.60;99.90;;;;;;952330;148;27263;-78
2022/09/15 01:35:46;;;;;;;0.80;0.80;;;20.40;99.90;;;;;;952664;149;27347;-77
2022/09/15 01:38:15;;;;;;;1.27;1.20;;;20.40;99.90;;;;;;938330;149;27401;-76
2022/09/15 01:40:45;;;;;;;0.75;0.75;;;20.30;99.90;;;;;;953817;149;27324;-76
2022/09/15 01:43:12;;;;;;;2.10;1.20;;;20.20;99.90;;;;;;954324;148;27377;-76
2022/09/15 01:45:38;;;;;;;1.02;1.02;;;20.10;99.90;;;;;;942956;149;27312;-76
2022/09/15 01:48:05;;;;;;;0.65;0.65;;;20.10;99.90;;;;;;942771;151;27336;-76
2022/09/15 01:50:35;;;;;;;1.20;1.10;;;20.00;99.90;;;;;;944484;151;27320;-76
2022/09/15 01:53:01;;;;;;;1.20;0.78;;;19.90;99.90;;;;;;944137;151;27326;-77
2022/09/15 01:55:30;;;;;;;1.37;1.00;;;19.90;99.90;;;;;;944326;149;27901;-77
2022/09/15 01:57:57;;;;;;;0.93;0.93;;;19.80;99.90;;;;;;943661;151;27357;-77
2022/09/15 02:00:23;;;;;;;0.90;0.88;;;19.80;99.90;;;;;;943669;150;27340;-77
2022/09/15 02:02:56;;;;;;;0.85;0.85;;;19.70;99.90;;;;;;943168;151;27375;-77
2022/09/15 02:05:38;;;;;;;0.70;0.70;;;19.70;99.90;;;;;;912341;157;27374;-77
2022/09/15 02:08:04;;;;;;;0.68;0.68;;;19.60;99.90;;;;;;944663;151;27327;-77
2022/09/15 02:10:42;;;;;;;0.57;0.57;;;19.60;99.90;;;;;;942841;151;27319;-77
2022/09/15 02:13:15;;;;;;;0.75;0.68;;;19.50;99.90;;;;;;944904;151;27347;-77
2022/09/15 02:15:46;;;;;;;0.60;0.60;;;19.50;99.90;;;;;;942923;151;27343;-76
2022/09/15 02:18:11;;;;;;;0.88;0.88;;;19.50;99.90;;;;;;945222;151;27408;-76
2022/09/15 02:20:37;;;;;;;0.85;0.55;;;19.40;99.90;;;;;;943596;149;27303;-77
2022/09/15 02:23:07;;;;;;;0.62;0.62;;;19.40;99.90;;;;;;947957;149;27461;-77
2022/09/15 02:25:33;;;;;;;0.68;0.62;;;19.40;99.90;;;;;;940685;151;27325;-77
2022/09/15 02:28:00;;;;;;;0.42;0.42;;;19.30;99.90;;;;;;946628;150;27418;-77
2022/09/15 02:30:26;;;;;;;0.98;0.90;;;19.30;99.90;;;;;;946115;151;27323;-77
2022/09/15 02:32:53;;;;;;;0.50;0.50;;;19.20;99.90;;;;;;948771;151;27393;-77
2022/09/15 02:35:19;;;;;;;1.15;0.80;;;19.20;99.90;;;;;;946829;150;27352;-77
2022/09/15 02:37:46;;;;;;;0.55;0.55;;;19.20;99.90;;;;;;946529;149;27364;-77
2022/09/15 02:40:12;;;;;;;1.25;0.78;;;19.20;99.90;;;;;;948536;150;27349;-77
2022/09/15 02:42:39;;;;;;;1.55;0.70;;;19.10;99.90;;;;;;947353;149;27384;-77
2022/09/15 02:45:06;;;;;;;0.80;0.80;;;19.10;99.90;;;;;;947557;151;28176;-74
2022/09/15 02:47:32;;;;;;;0.72;0.72;;;19.00;99.90;;;;;;947170;151;27311;-76
2022/09/15 02:49:59;;;;;;;1.42;0.88;;;19.00;99.90;;;;;;947108;149;27600;-74
2022/09/15 02:52:25;;;;;;;0.57;0.50;;;19.00;99.90;;;;;;946232;151;27342;-75
2022/09/15 02:54:53;;;;;;;0.60;0.60;;;19.00;99.90;;;;;;947884;149;27319;-74
2022/09/15 02:57:19;;;;;;;1.00;0.85;;;19.00;99.90;;;;;;947825;151;27255;-75
2022/09/15 03:02:31;;;;;;;0.57;0.57;;;19.00;99.90;;;;;;947160;151;27310;-75
2022/09/15 03:04:57;;;;;;;0.60;0.60;;;18.90;99.90;;;;;;947874;150;27375;-74
2022/09/15 03:07:23;;;;;;;0.90;0.90;;;18.90;99.90;;;;;;947115;151;27354;-75
2022/09/15 03:09:50;;;;;;;0.68;0.68;;;18.90;99.90;;;;;;947038;151;27305;-74
2022/09/15 03:12:17;;;;;;;0.80;0.80;;;18.90;99.90;;;;;;947395;149;27419;-75
2022/09/15 03:14:43;;;;;;;0.88;0.88;;;18.80;99.90;;;;;;946347;151;27299;-75
2022/09/15 03:17:10;;;;;;;0.82;0.82;;;18.80;99.90;;;;;;947350;149;27423;-76
2022/09/15 03:19:37;;;;;;;1.07;1.07;;;18.80;99.90;;;;;;945798;151;27335;-74
2022/09/15 03:22:03;;;;;;;3.55;1.10;;;18.80;99.90;;;;;;948081;151;28000;-74
2022/09/15 03:24:30;;;;;;;1.37;1.27;;;18.80;99.90;;;;;;947542;149;27829;-74
2022/09/15 03:26:56;;;;;;;1.17;1.17;;;18.80;99.90;;;;;;945603;149;27357;-74
2022/09/15 03:29:23;;;;;;;1.95;1.05;;;18.70;99.90;;;;;;947828;149;27396;-75
2022/09/15 03:31:49;;;;;;;1.17;1.10;;;18.70;99.90;;;;;;947755;149;27436;-75
2022/09/15 03:34:16;;;;;;;1.47;1.40;;;18.70;99.90;;;;;;946985;151;27327;-74
2022/09/15 03:36:43;;;;;;;1.30;1.20;;;18.70;99.90;;;;;;945381;151;27328;-74
2022/09/15 03:39:09;;;;;;;1.15;1.10;;;18.70;99.90;;;;;;945728;149;27398;-75
2022/09/15 03:41:36;;;;;;;1.80;1.70;;;18.70;99.90;;;;;;948320;151;27295;-75
2022/09/15 03:44:02;;;;;;;2.58;1.72;;;18.70;99.90;;;;;;945506;149;27498;-74
2022/09/15 03:46:29;;;;;;;2.15;1.80;;;18.70;99.90;;;;;;956656;149;27759;-74
2022/09/15 03:48:56;;;;;;;2.10;2.00;;;18.70;99.90;;;;;;948667;148;27298;-74
2022/09/15 03:51:22;;;;;;;2.12;2.00;;;18.60;99.90;;;;;;950124;149;27298;-75
2022/09/15 03:53:49;;;;;;;2.27;1.85;;;18.60;99.90;;;;;;951679;148;27319;-75
2022/09/15 03:56:21;;;;;;;3.55;2.55;;;18.60;99.90;;;;;;949633;148;27347;-76
2022/09/15 03:58:48;;;;;;;3.00;2.70;;;18.60;99.90;;;;;;950433;149;27251;-74
2022/09/15 04:01:14;;;;;;;3.92;2.52;;;18.60;99.90;;;;;;949305;148;27312;-74
2022/09/15 04:03:41;;;;;;;2.87;2.67;;;18.60;99.90;;;;;;950181;148;27427;-74
2022/09/15 04:06:07;;;;;;;3.20;2.90;;;18.60;99.90;;;;;;951416;148;27361;-76
2022/09/15 04:08:34;;;;;;;3.05;2.83;;;18.60;99.90;;;;;;949153;150;27318;-75
2022/09/15 04:11:04;;;;;;;3.95;3.20;;;18.50;99.90;;;;;;947996;150;27355;-75
2022/09/15 04:13:30;;;;;;;3.52;3.22;;;18.50;99.90;;;;;;949806;148;27385;-75
2022/09/15 04:15:59;;;;;;;4.00;3.67;;;18.50;99.90;;;;;;951578;148;27291;-76
2022/09/15 04:18:26;;;;;;;4.25;3.35;;;18.50;99.90;;;;;;950696;150;27326;-74
2022/09/15 04:20:52;;;;;;;4.03;3.67;;;18.50;99.90;;;;;;951663;150;27268;-74
2022/09/15 04:23:19;;;;;;;3.87;3.58;;;18.40;99.90;;;;;;941933;148;27346;-74
2022/09/15 04:25:45;;;;;;;4.05;3.72;;;18.40;99.90;;;;;;936564;152;27301;-76
2022/09/15 04:28:12;;;;;;;7.20;4.28;;;18.40;99.90;;;;;;935623;152;27375;-76
2022/09/15 04:30:39;;;;;;;4.10;3.40;;;18.40;99.90;;;;;;937838;152;27348;-74
2022/09/15 04:33:07;;;;;;;3.65;3.35;;;18.40;99.90;;;;;;937544;152;27336;-74
2022/09/15 04:35:32;;;;;;;3.10;2.80;;;18.30;99.90;;;;;;936502;152;27296;-75
2022/09/15 04:37:59;;;;;;;3.45;3.15;;;18.30;99.90;;;;;;938276;152;27286;-75
2022/09/15 04:40:25;;;;;;;3.02;2.67;;;18.30;99.90;;;;;;938939;151;27347;-76
2022/09/15 04:42:52;;;;;;;3.33;2.98;;;18.30;99.90;;;;;;937639;150;27361;-76
2022/09/15 04:45:18;;;;;;;3.90;3.30;;;18.30;99.90;;;;;;936976;151;27356;-74
2022/09/15 04:47:47;;;;;;;3.55;3.25;;;18.30;99.90;;;;;;937569;152;27277;-74
2022/09/15 04:52:47;;;;;;;4.03;3.62;;;18.30;99.90;;;;;;979551;143;37342;-73
2022/09/15 04:55:14;;;;;;;4.15;3.75;;;18.20;99.90;;;;;;964720;146;27297;-77
2022/09/15 04:57:40;;;;;;;4.65;3.87;;;18.20;99.90;;;;;;964255;146;27322;-76
2022/09/15 05:00:07;;;;;;;4.67;3.58;;;18.20;99.90;;;;;;965321;146;27346;-76
2022/09/15 05:02:34;;;;;;;3.90;3.60;;;18.20;99.90;;;;;;965402;146;27306;-76
2022/09/15 05:05:01;;;;;;;4.55;4.17;;;18.20;99.90;;;;;;965683;146;27297;-76
2022/09/15 05:07:27;;;;;;;4.40;4.00;;;18.20;99.90;;;;;;966691;146;27313;-75
2022/09/15 05:09:54;;;;;;;8.15;5.03;;;18.20;99.90;;;;;;965880;146;27380;-77
2022/09/15 05:12:20;;;;;;;4.20;3.55;;;18.20;99.90;;;;;;965538;146;27310;-75
2022/09/15 05:14:47;;;;;;;4.50;3.65;;;18.20;99.90;;;;;;966057;146;27806;-76
2022/09/15 05:17:13;;;;;;;4.72;3.72;;;18.20;99.90;;;;;;964232;146;27311;-76
2022/09/15 05:19:40;;;;;;;5.37;3.65;;;18.20;99.90;;;;;;964966;146;27375;-76
2022/09/15 05:22:07;;;;;;;4.92;3.45;;;18.20;99.90;;;;;;966176;146;27842;-77
2022/09/15 05:24:33;;;;;;;3.77;3.47;;;18.20;99.90;;;;;;965677;146;27430;-77
2022/09/15 05:27:00;;;;;;;5.05;3.33;;;18.20;99.90;;;;;;963741;146;27325;-76
2022/09/15 05:29:26;;;;;;;3.37;3.08;;;18.10;99.90;;;;;;965292;146;27231;-76
2022/09/15 05:31:53;;;;;;;3.25;2.72;;;18.10;99.90;;;;;;967070;146;27720;-75
2022/09/15 05:34:19;;;;;;;4.28;3.20;;;18.10;99.90;;;;;;966557;146;27281;-76
2022/09/15 05:36:46;;;;;;;3.20;2.90;;;18.10;99.90;;;;;;965625;146;27243;-78
2022/09/15 05:39:13;;;;;;;3.15;2.80;;;18.10;99.90;;;;;;930822;151;27373;-76
2022/09/15 05:41:40;;;;;;;5.12;3.20;;;18.10;99.90;;;;;;931151;152;27359;-75
2022/09/15 05:44:06;;;;;;;3.75;3.33;;;18.10;99.90;;;;;;920924;153;27317;-76
2022/09/15 05:46:32;;;;;;;4.20;3.08;;;18.10;99.90;;;;;;933386;149;27329;-77
2022/09/15 05:48:59;;;;;;;3.90;3.47;;;18.00;99.90;;;;;;932985;149;27365;-76
2022/09/15 05:51:26;;;;;;;5.75;3.15;;;18.00;99.90;;;;;;936156;151;27407;-77
2022/09/15 05:53:52;;;;;;;3.25;2.95;;;18.00;99.90;;;;;;968669;145;27357;-76
2022/09/15 05:56:19;;;;;;;2.65;2.45;;;18.00;99.90;;;;;;967993;145;27348;-76
2022/09/15 05:58:45;;;;;;;3.40;3.10;;;18.10;99.90;;;;;;968204;145;27302;-76
2022/09/15 06:01:17;;;;;;;3.30;3.00;;;18.10;99.90;;;;;;968266;145;27366;-76
2022/09/15 06:03:44;;;;;;;3.27;3.08;;;18.10;99.90;;;;;;967585;145;27420;-76
2022/09/15 06:06:11;;;;;;;4.35;3.33;;;18.10;99.90;;;;;;967735;145;27306;-76
2022/09/15 06:08:40;;;;;;;5.12;3.30;;;18.10;99.90;;;;;;967177;145;27319;-76
2022/09/15 06:11:12;;;;;;;3.35;3.10;;;18.10;99.90;;;;;;967704;145;27428;-77
2022/09/15 06:13:39;;;;;;;3.90;3.15;;;18.20;99.90;;;;;;967871;145;27329;-74
2022/09/15 06:16:06;;;;;;;4.67;3.00;;;18.20;99.90;;;;;;967665;145;27354;-74
2022/09/15 06:18:32;;;;;;;3.70;3.40;;;18.20;99.90;;;;;;967347;145;27266;-74
2022/09/15 06:20:59;;;;;;;3.80;3.50;;;18.20;99.90;;;;;;967606;145;27330;-75
2022/09/15 06:23:25;;;;;;;3.33;3.02;;;18.20;99.90;;;;;;967190;145;27325;-75
2022/09/15 06:25:52;;;;;;;4.62;2.90;;;18.20;99.90;;;;;;967979;145;27279;-75
2022/09/15 06:28:18;;;;;;;3.47;2.75;;;18.30;99.90;;;;;;967961;145;27455;-74
2022/09/15 06:30:48;;;;;;;3.00;2.80;;;18.30;99.90;;;;;;967359;145;27307;-75
2022/09/15 06:33:12;;;;;;;4.83;3.00;;;18.40;99.90;;;;;;967551;145;27314;-74
2022/09/15 06:35:38;;;;;;;2.95;2.70;;;18.40;99.90;;;;;;967457;145;27301;-74
2022/09/15 06:38:05;;;;;;;6.15;4.10;;;18.60;99.90;;;;;;967291;146;27619;-76
2022/09/15 06:40:31;;;;;;;3.45;3.05;;;18.60;99.90;;;;;;967432;145;27333;-75
2022/09/15 06:42:58;;;;;;;3.05;2.72;;;18.70;99.90;;;;;;967510;145;27318;-75
2022/09/15 06:45:25;;;;;;;6.67;3.12;;;18.80;99.90;;;;;;967699;145;27350;-74
2022/09/15 06:47:51;;;;;;;3.52;2.98;;;18.90;99.90;;;;;;967352;145;27301;-75
2022/09/15 06:50:18;;;;;;;3.20;2.80;;;19.00;99.90;;;;;;967298;145;27380;-76
2022/09/15 06:52:44;;;;;;;4.55;2.77;;;19.10;99.90;;;;;;966336;145;27479;-77
2022/09/15 06:55:11;;;;;;;3.22;2.92;;;19.20;99.90;;;;;;964084;146;27339;-75
2022/09/15 06:57:38;;;;;;;3.10;2.65;;;19.20;99.90;;;;;;963525;148;27291;-74
2022/09/15 07:00:05;;;;;;;2.58;2.37;;;19.30;99.90;;;;;;963871;146;27303;-75
2022/09/15 07:02:31;;;;;;;4.92;2.47;;;19.40;99.90;;;;;;964201;146;27268;-75
2022/09/15 07:04:57;;;;;;;3.80;2.55;;;19.40;99.90;;;;;;964077;146;27388;-77
2022/09/15 07:07:24;;;;;;;3.35;2.60;;;19.50;99.90;;;;;;963903;146;28134;-74
2022/09/15 07:09:51;;;;;;;2.83;2.60;;;19.60;99.90;;;;;;963478;146;27414;-75
2022/09/15 07:12:17;;;;;;;2.35;2.20;;;19.60;99.90;;;;;;964424;146;27303;-75
2022/09/15 07:14:44;;;;;;;2.60;2.40;;;19.70;99.90;;;;;;964594;146;27381;-75
2022/09/15 07:17:10;;;;;;;2.55;2.35;;;19.90;99.90;;;;;;964620;146;27282;-75
2022/09/15 07:19:37;;;;;;;2.62;2.42;;;20.00;99.90;;;;;;964079;146;27419;-76
2022/09/15 07:22:03;;;;;;;2.90;2.37;;;20.20;99.90;;;;;;964110;146;27952;-75
2022/09/15 07:24:30;;;;;;;2.08;1.98;;;20.40;99.90;;;;;;964418;146;27236;-75
2022/09/15 07:26:57;;;;;;;2.92;2.60;;;20.60;99.90;;;;;;964557;146;27388;-75
2022/09/15 07:29:23;;;;;;;3.08;2.33;;;20.70;99.90;;;;;;963970;146;27391;-75
2022/09/15 07:31:50;;;;;;;2.52;2.33;;;20.80;99.90;;;;;;964406;146;27440;-74
2022/09/15 07:34:16;;;;;;;3.05;2.22;;;20.90;99.90;;;;;;964430;146;27426;-75
2022/09/15 07:36:43;;;;;;;3.05;2.08;;;20.90;99.90;;;;;;963912;146;27302;-75
2022/09/15 07:39:10;;;;;;;2.87;2.67;;;20.80;99.90;;;;;;964304;146;27384;-75
2022/09/15 07:41:36;;;;;;;4.03;2.40;;;20.80;99.90;;;;;;965229;146;27318;-76
2022/09/15 07:44:03;;;;;;;4.00;2.60;;;20.80;99.90;;;;;;964591;146;27825;-76
2022/09/15 07:46:29;;;;;;;2.87;2.20;;;20.70;99.90;;;;;;965309;146;27322;-75
2022/09/15 07:48:56;;;;;;;3.10;2.80;;;20.70;99.90;;;;;;964097;146;27459;-75
2022/09/15 07:51:22;;;;;;;2.42;2.22;;;20.60;99.90;;;;;;964522;146;27299;-76
2022/09/15 07:53:49;;;;;;;3.83;3.50;;;20.60;99.90;;;;;;955657;146;27392;-75
2022/09/15 07:56:19;;;;;;;3.35;2.40;;;20.60;99.90;;;;;;948358;147;27412;-75
2022/09/15 07:58:45;;;;;;;2.60;2.40;;;20.60;99.90;;;;;;947969;147;27791;-75
2022/09/15 08:01:13;;;;;;;2.98;2.30;;;20.60;99.90;;;;;;926827;152;27433;-75
2022/09/15 08:03:45;;;;;;;2.72;2.40;;;20.60;99.90;;;;;;927202;152;28151;-74
2022/09/15 08:06:11;;;;;;;4.72;2.45;;;20.60;99.90;;;;;;926692;152;27311;-75
2022/09/15 08:08:40;;;;;;;2.87;2.67;;;20.60;99.90;;;;;;927275;152;27878;-77
2022/09/15 08:11:09;;;;;;;3.05;2.50;;;20.50;99.90;;;;;;927601;152;27351;-75
2022/09/15 08:13:36;;;;;;;4.83;3.30;;;20.50;99.90;;;;;;927127;152;27434;-74
2022/09/15 08:16:08;;;;;;;3.35;2.80;;;20.60;99.90;;;;;;927042;152;27363;-75
2022/09/15 08:18:35;;;;;;;3.50;2.30;;;20.70;99.90;;;;;;926632;151;27387;-77
2022/09/15 08:21:05;;;;;;;3.02;2.25;;;20.70;99.90;;;;;;926220;152;27475;-74
2022/09/15 08:23:31;;;;;;;2.35;2.15;;;20.80;99.90;;;;;;926164;152;27282;-74
2022/09/15 08:25:57;;;;;;;6.65;2.67;;;20.80;99.90;;;;;;927143;152;27316;-76
2022/09/15 08:28:25;;;;;;;3.70;2.25;;;20.90;99.90;;;;;;926765;152;27698;-75
2022/09/15 08:30:50;;;;;;;3.77;2.60;;;20.90;99.90;;;;;;927225;152;27482;-74
2022/09/15 08:33:17;;;;;;;2.25;2.05;;;20.90;99.90;;;;;;926208;152;27543;-75
2022/09/15 08:35:44;;;;;;;3.35;2.40;;;21.00;99.90;;;;;;927712;152;27359;-74
2022/09/15 08:38:10;;;;;;;2.62;2.02;;;21.10;99.90;;;;;;926978;152;27351;-75
2022/09/15 08:40:37;;;;;;;2.87;1.92;;;21.10;99.90;;;;;;927554;152;27436;-75
2022/09/15 08:43:03;;;;;;;2.22;1.95;;;21.20;99.90;;;;;;927443;152;27409;-76
2022/09/15 08:45:30;;;;;;;2.45;2.10;;;21.30;99.90;;;;;;925848;150;27380;-74
2022/09/15 08:47:57;;;;;;;2.25;2.00;;;21.40;99.90;;;;;;948428;147;27312;-74
2022/09/15 08:50:30;;;;;;;3.10;2.00;;;21.50;99.70;;;;;;948313;147;27370;-74
2022/09/15 08:53:11;;;;;;;2.50;1.90;;;21.60;99.40;;;;;;927137;152;27422;-75
2022/09/15 08:55:43;;;;;;;1.90;1.80;;;21.70;99.80;;;;;;926869;152;27339;-75
2022/09/15 08:58:18;;;;;;;3.75;2.08;;;21.90;99.70;;;;;;926515;152;27383;-74
2022/09/15 09:00:45;;;;;;;2.17;1.90;;;22.10;99.90;;;;;;927441;152;27337;-74
2022/09/15 09:03:32;;;;;;;1.72;1.62;;;22.40;99.60;;;;;;927521;152;27391;-75
2022/09/15 09:06:07;;;;;;;1.75;1.65;;;22.60;99.10;;;;;;905297;153;27503;-75
2022/09/15 09:08:43;;;;;;;3.35;1.75;;;22.90;97.40;;;;;;948808;147;27319;-74
2022/09/15 09:11:18;;;;;;;2.65;1.60;;;23.10;96.90;;;;;;926637;152;27350;-75
2022/09/15 09:13:51;;;;;;;1.60;1.50;;;23.30;96.30;;;;;;926414;152;27376;-74
2022/09/15 09:16:54;;;;;;;1.67;1.40;;;23.50;95.50;;;;;;926987;152;27340;-74
2022/09/15 09:19:21;;;;;;;2.12;1.50;;;23.70;95.40;;;;;;927495;152;27745;-76
2022/09/15 09:21:47;;;;;;;1.62;1.47;;;23.90;94.00;;;;;;926551;152;27465;-74
2022/09/15 09:24:17;;;;;;;1.27;1.17;;;24.10;93.20;;;;;;926550;152;27332;-74
2022/09/15 09:26:43;;;;;;;2.30;1.42;;;24.30;91.90;;;;;;925879;152;27345;-74
2022/09/15 09:29:15;;;;;;;1.57;1.12;;;24.50;91.10;;;;;;926711;152;27357;-75
2022/09/15 09:31:42;;;;;;;2.17;1.12;;;24.70;91.10;;;;;;926476;152;27390;-76
2022/09/15 09:34:27;;;;;;;1.10;1.00;;;24.90;90.40;;;;;;927159;151;27465;-74
2022/09/15 09:36:59;;;;;;;1.10;1.10;;;25.20;89.10;;;;;;926669;151;27413;-74
2022/09/15 09:39:26;;;;;;;1.12;1.05;;;25.50;87.40;;;;;;926752;152;27472;-75
2022/09/15 09:41:52;;;;;;;1.52;1.30;;;25.80;87.00;;;;;;927244;152;27357;-75
2022/09/15 09:44:19;;;;;;;1.82;1.60;;;26.10;88.20;;;;;;927365;151;27438;-75
2022/09/15 09:46:46;;;;;;;1.22;0.90;;;26.50;89.60;;;;;;927155;152;27392;-74
2022/09/15 09:49:24;;;;;;;1.37;1.02;;;26.80;87.80;;;;;;911670;153;27371;-75
2022/09/15 09:51:54;;;;;;;0.85;0.82;;;27.10;83.40;;;;;;948532;147;27797;-76
2022/09/15 09:54:20;;;;;;;1.65;1.27;;;27.40;79.30;;;;;;926841;152;27634;-77
2022/09/15 09:56:47;;;;;;;1.20;1.10;;;27.50;76.70;;;;;;926653;151;27375;-77
2022/09/15 09:59:31;;;;;;;2.25;1.07;;;27.60;74.90;;;;;;926932;152;27381;-75
2022/09/15 10:02:16;;;;;;;1.82;1.45;;;27.60;73.80;;;;;;900780;153;27445;-76
2022/09/15 10:04:42;;;;;;;2.10;1.10;;;27.60;72.40;;;;;;946953;147;27325;-76
2022/09/15 10:07:09;;;;;;;1.75;1.30;;;27.50;72.30;;;;;;948242;147;27256;-76
2022/09/15 10:09:36;;;;;;;1.77;1.00;;;27.40;70.70;;;;;;912615;154;27459;-78
2022/09/15 10:12:05;;;;;;;1.80;1.00;;;27.30;71.00;;;;;;948640;147;27409;-76
2022/09/15 10:14:31;;;;;;;1.45;0.82;;;27.30;70.50;;;;;;948006;147;27409;-75
2022/09/15 10:17:04;;;;;;;1.27;1.17;;;27.20;69.90;;;;;;926506;152;27393;-77
2022/09/15 10:19:30;;;;;;;2.05;1.00;;;27.10;69.20;;;;;;926888;152;27363;-75
2022/09/15 10:21:57;;;;;;;2.37;1.20;;;27.00;69.30;;;;;;926734;152;27491;-78
2022/09/15 10:24:27;;;;;;;1.45;0.80;;;26.80;69.00;;;;;;926651;151;27381;-75
2022/09/15 10:26:53;;;;;;;1.10;1.00;;;26.80;68.50;;;;;;927054;151;27372;-75
2022/09/15 10:29:20;;;;;;;1.47;1.02;;;26.70;68.50;;;;;;912866;152;27317;-75
2022/09/15 10:31:46;;;;;;;1.50;0.90;;;26.60;68.30;;;;;;926297;151;27468;-76
2022/09/15 10:34:32;;;;;;;2.12;0.72;;;26.60;68.50;;;;;;926902;152;27372;-77
2022/09/15 10:36:58;;;;;;;1.22;0.90;;;26.50;68.80;;;;;;927173;152;27435;-75
2022/09/15 10:39:31;;;;;;;0.85;0.70;;;26.60;69.00;;;;;;925211;152;27384;-76
2022/09/15 10:42:22;;;;;;;2.47;1.00;;;26.70;68.90;;;;;;906695;153;27410;-75
2022/09/15 10:45:06;;;;;;;1.10;0.90;;;26.70;68.70;;;;;;933996;151;27278;-75
2022/09/15 10:47:48;;;;;;;1.85;0.90;;;26.70;68.40;;;;;;925801;150;27427;-76
2022/09/15 10:50:17;;;;;;;1.35;1.00;;;26.80;67.90;;;;;;927917;150;27348;-75
2022/09/15 10:53:21;;;;;;;1.55;1.00;;;26.70;67.10;;;;;;948297;147;27855;-76
2022/09/15 10:55:59;;;;;;;1.82;0.75;;;26.60;66.10;;;;;;929380;152;27477;-75
2022/09/15 10:58:32;;;;;;;0.75;0.75;;;26.50;66.40;;;;;;955079;148;27303;-74
2022/09/15 11:01:10;;;;;;;2.00;1.10;;;26.30;66.00;;;;;;955996;150;27318;-74
2022/09/15 11:03:43;;;;;;;1.27;0.75;;;26.20;66.50;;;;;;955545;147;27339;-74
2022/09/15 11:06:18;;;;;;;1.50;0.80;;;26.10;66.90;;;;;;955020;149;27369;-75
2022/09/15 11:09:19;;;;;;;0.98;0.85;;;26.00;67.20;;;;;;950043;150;27342;-76
2022/09/15 11:11:48;;;;;;;1.12;0.80;;;25.90;67.60;;;;;;956024;150;27330;-76
2022/09/15 11:14:16;;;;;;;1.00;0.75;;;25.90;67.60;;;;;;954984;147;27409;-75
2022/09/15 11:16:53;;;;;;;2.47;0.88;;;25.90;67.50;;;;;;955079;150;27686;-75
2022/09/15 11:19:22;;;;;;;0.93;0.80;;;25.90;67.10;;;;;;955252;150;27295;-75
2022/09/15 11:21:55;;;;;;;0.88;0.88;;;25.90;67.00;;;;;;955244;150;27364;-76
2022/09/15 11:24:42;;;;;;;1.07;0.90;;;25.80;66.70;;;;;;956037;150;27405;-75
2022/09/15 11:27:11;;;;;;;1.47;1.00;;;25.90;66.70;;;;;;955780;150;27288;-77
2022/09/15 11:29:53;;;;;;;1.10;1.00;;;25.80;66.40;;;;;;956129;150;27264;-75
2022/09/15 11:32:20;;;;;;;1.52;0.90;;;25.90;66.60;;;;;;956290;150;27409;-75
2022/09/15 11:34:46;;;;;;;1.95;1.02;;;25.90;66.40;;;;;;954268;150;27330;-74
2022/09/15 11:37:19;;;;;;;1.40;1.30;;;25.90;66.20;;;;;;954971;150;28241;-74
2022/09/15 11:39:51;;;;;;;1.35;1.25;;;25.90;66.50;;;;;;954519;147;27364;-74
2022/09/15 11:42:18;;;;;;;2.05;1.37;;;26.00;66.60;;;;;;956122;147;27252;-74
2022/09/15 11:44:44;;;;;;;1.72;1.60;;;26.00;66.10;;;;;;955776;147;27313;-75
2022/09/15 11:47:32;;;;;;;1.92;1.70;;;26.00;65.30;;;;;;956000;149;27326;-74
2022/09/15 11:50:10;;;;;;;2.12;2.02;;;26.00;64.70;;;;;;956227;150;27336;-74
2022/09/15 11:52:58;;;;;;;1.92;1.77;;;25.90;64.30;;;;;;956019;150;27300;-74
2022/09/15 11:55:37;;;;;;;1.72;1.62;;;25.80;64.20;;;;;;953042;148;27988;-74
2022/09/15 11:58:29;;;;;;;2.22;2.08;;;25.70;64.40;;;;;;947119;151;27272;-75
2022/09/15 12:01:07;;;;;;;3.40;2.58;;;25.50;64.10;;;;;;947770;151;27292;-74
2022/09/15 12:03:37;;;;;;;2.37;1.95;;;25.40;63.40;;;;;;947511;151;27268;-74
2022/09/15 12:06:03;;;;;;;2.90;2.60;;;25.10;63.70;;;;;;948113;151;27324;-76
2022/09/15 12:08:33;;;;;;;3.40;2.62;;;24.90;63.00;;;;;;947055;151;27340;-74
2022/09/15 12:10:59;;;;;;;2.87;2.67;;;24.70;62.90;;;;;;947489;151;28662;-74
2022/09/15 12:13:26;;;;;;;3.83;2.65;;;24.50;63.20;;;;;;948128;151;27377;-74
2022/09/15 12:15:53;;;;;;;4.28;2.98;;;24.30;63.60;;;;;;948290;151;27289;-74
2022/09/15 12:18:34;;;;;;;3.25;2.95;;;24.10;64.10;;;;;;948295;151;27350;-76
2022/09/15 12:21:32;;;;;;;2.92;2.62;;;23.90;64.30;;;;;;946860;148;27341;-74
2022/09/15 12:24:12;;;;;;;2.75;2.55;;;23.80;64.60;;;;;;947796;151;27300;-74
2022/09/15 12:26:41;;;;;;;3.90;2.95;;;23.70;64.90;;;;;;947669;151;27787;-74
2022/09/15 12:29:12;;;;;;;3.52;3.15;;;23.60;64.90;;;;;;946590;148;27354;-75
2022/09/15 12:31:38;;;;;;;3.30;2.62;;;23.50;64.90;;;;;;931679;151;27348;-74
2022/09/15 12:34:32;;;;;;;2.75;2.55;;;23.40;64.90;;;;;;947541;151;27340;-74
2022/09/15 12:37:07;;;;;;;2.77;2.25;;;23.50;65.00;;;;;;948141;151;27305;-74
2022/09/15 12:39:43;;;;;;;2.70;2.50;;;23.40;65.50;;;;;;947297;148;27357;-74
2022/09/15 12:42:13;;;;;;;2.77;2.50;;;23.40;65.00;;;;;;947165;148;27297;-74
2022/09/15 12:44:41;;;;;;;3.25;2.25;;;23.40;65.20;;;;;;947367;148;28134;-74
2022/09/15 12:47:30;;;;;;;2.65;2.45;;;23.50;65.40;;;;;;948145;151;27708;-74
2022/09/15 12:49:53;;;;;;;2.98;2.72;;;23.50;65.20;;;;;;943274;151;27321;-74
2022/09/15 12:52:20;;;;;;;3.02;2.83;;;23.60;65.10;;;;;;947340;150;27232;-74
2022/09/15 12:54:47;;;;;;;2.80;2.47;;;23.70;64.80;;;;;;948025;148;27250;-74
2022/09/15 12:57:31;;;;;;;2.95;2.75;;;23.70;64.50;;;;;;948903;147;27410;-74
2022/09/15 13:00:22;;;;;;;2.95;2.60;;;23.80;64.20;;;;;;911832;154;27387;-77
2022/09/15 13:02:49;;;;;;;2.60;2.40;;;23.90;64.30;;;;;;926679;152;27380;-74
2022/09/15 13:05:34;;;;;;;3.12;2.80;;;23.90;64.20;;;;;;927065;152;27895;-75
2022/09/15 13:08:00;;;;;;;2.83;2.62;;;23.90;63.80;;;;;;926525;151;28069;-75
2022/09/15 13:10:27;;;;;;;2.90;2.70;;;23.90;63.70;;;;;;912017;153;27364;-74